This is the latest recevied weather packets stored in our database for station/object NUUKSIO. If no packets are shown the sender has not sent any weather packets the latest 10 day(s).
| Time | Temp. | Humidity | Pressure | Rain* | Wind** | Luminosity | Snow |
|---|---|---|---|---|---|---|---|
| 1777529212 | 6.11° C | 75% | 1021.6 hPa | 0 mm | - | - | - |
| 1777528012 | 5° C | 75% | 1021.9 hPa | 0 mm | - | - | - |
| 1777526812 | 5° C | 72% | 1022.1 hPa | 0 mm | - | - | - |
| 1777525612 | 4.44° C | 73% | 1022.1 hPa | 0 mm | - | - | - |
| 1777524412 | 3.89° C | 73% | 1022.4 hPa | 0 mm | - | - | - |
| 1777523212 | 3.33° C | 72% | 1022.5 hPa | 0 mm | - | - | - |
| 1777522012 | 3.33° C | 71% | 1022.4 hPa | 0 mm | - | - | - |
| 1777520812 | 2.78° C | 73% | 1022.3 hPa | 0 mm | - | - | - |
| 1777519612 | 2.22° C | 73% | 1022.5 hPa | 0 mm | - | - | - |
| 1777518412 | 2.22° C | 72% | 1022.6 hPa | 0 mm | - | - | - |
| 1777517212 | 2.22° C | 72% | 1022.5 hPa | 0 mm | - | - | - |
| 1777516012 | 1.67° C | 71% | 1022.7 hPa | 0 mm | - | - | - |
| 1777514812 | 1.67° C | 71% | 1022.9 hPa | 0 mm | - | - | - |
| 1777513612 | 1.67° C | 70% | 1022.8 hPa | 0 mm | - | - | - |
| 1777512412 | 1.67° C | 68% | 1022.8 hPa | 0 mm | - | - | - |
| 1777511211 | 1.67° C | 65% | 1023.2 hPa | 0 mm | - | - | - |
| 1777510011 | 1.67° C | 65% | 1023.4 hPa | 0 mm | - | - | - |
| 1777508811 | 1.67° C | 62% | 1023.5 hPa | 0 mm | - | - | - |
| 1777507611 | 1.67° C | 61% | 1023.5 hPa | 0 mm | - | - | - |
| 1777506411 | 1.67° C | 60% | 1023.5 hPa | 0 mm | - | - | - |
| 1777505211 | 1.11° C | 61% | 1023.6 hPa | 0 mm | - | - | - |
| 1777504011 | 1.11° C | 60% | 1023.8 hPa | 0 mm | - | - | - |
| 1777502811 | 0.56° C | 61% | 1023.9 hPa | 0 mm | - | - | - |
| 1777501611 | 0.56° C | 60% | 1023.9 hPa | 0 mm | - | - | - |
| 1777500411 | 0.56° C | 59% | 1023.9 hPa | 0 mm | - | - | - |
* Rain latest hour (hover to see other rain measurements)
** Current wind speed in m/s (hover to see current wind gust speed)